createdAt,value
2022-09-28T00:00:39.793Z,6.30
2022-09-28T00:03:07.920Z,6.00
2022-09-28T00:05:36.211Z,6.53
2022-09-28T00:08:04.069Z,5.55
2022-09-28T00:10:31.935Z,5.97
2022-09-28T00:13:01.865Z,6.20
2022-09-28T00:15:29.732Z,10.48
2022-09-28T00:17:57.587Z,7.90
2022-09-28T00:20:25.595Z,6.35
2022-09-28T00:22:53.645Z,6.53
2022-09-28T00:25:22.057Z,7.78
2022-09-28T00:27:51.321Z,7.30
2022-09-28T00:30:20.635Z,6.72
2022-09-28T00:32:48.567Z,6.10
2022-09-28T00:35:16.501Z,6.68
2022-09-28T00:37:44.389Z,5.15
2022-09-28T00:40:12.158Z,7.43
2022-09-28T00:42:42.874Z,6.28
2022-09-28T00:45:11.191Z,8.25
2022-09-28T00:47:44.332Z,5.68
2022-09-28T00:50:21.601Z,8.48
2022-09-28T00:52:54.621Z,8.15
2022-09-28T00:55:27.934Z,6.60
2022-09-28T00:58:00.801Z,7.10
2022-09-28T01:00:29.134Z,5.47
2022-09-28T01:02:59.691Z,5.97
2022-09-28T01:05:28.558Z,6.30
2022-09-28T01:07:58.571Z,5.15
2022-09-28T01:10:26.748Z,5.45
2022-09-28T01:12:56.456Z,5.82
2022-09-28T01:15:28.003Z,7.18
2022-09-28T01:18:08.702Z,7.18
2022-09-28T01:20:57.874Z,5.72
2022-09-28T01:23:59.556Z,5.38
2022-09-28T01:26:46.765Z,5.68
2022-09-28T01:29:24.790Z,6.80
2022-09-28T01:32:09.389Z,5.10
2022-09-28T01:34:42.796Z,5.35
2022-09-28T01:37:16.207Z,5.30
2022-09-28T01:39:48.429Z,12.18
2022-09-28T01:42:21.828Z,4.72
2022-09-28T01:44:52.602Z,4.15
2022-09-28T01:47:24.507Z,5.03
2022-09-28T01:49:59.446Z,4.82
2022-09-28T01:52:32.646Z,3.50
2022-09-28T01:55:07.752Z,3.58
2022-09-28T01:57:42.017Z,7.07
2022-09-28T02:00:13.077Z,4.93
2022-09-28T02:05:24.847Z,6.43
2022-09-28T02:07:59.778Z,4.75
2022-09-28T02:10:33.596Z,5.22
2022-09-28T02:13:06.946Z,5.03
2022-09-28T02:15:41.261Z,5.80
2022-09-28T02:18:10.520Z,4.72
2022-09-28T02:20:42.980Z,3.30
2022-09-28T02:23:11.965Z,4.05
2022-09-28T02:25:46.198Z,3.83
2022-09-28T02:28:15.924Z,4.10
2022-09-28T02:30:45.437Z,3.75
2022-09-28T02:33:19.934Z,4.65
2022-09-28T02:35:49.052Z,5.18
2022-09-28T02:38:18.801Z,6.18
2022-09-28T02:40:58.626Z,5.78
2022-09-28T02:43:35.191Z,4.68
2022-09-28T02:46:13.929Z,3.85
2022-09-28T02:49:20.422Z,5.18
2022-09-28T02:52:03.043Z,6.80
2022-09-28T02:54:48.442Z,5.57
2022-09-28T02:57:30.437Z,8.55
2022-09-28T03:00:06.679Z,6.18
2022-09-28T03:02:41.959Z,5.18
2022-09-28T03:05:20.780Z,8.82
2022-09-28T03:07:58.185Z,4.97
2022-09-28T03:10:34.854Z,4.72
2022-09-28T03:13:04.355Z,5.97
2022-09-28T03:15:35.581Z,5.50
2022-09-28T03:18:04.111Z,5.60
2022-09-28T03:20:33.668Z,7.63
2022-09-28T03:25:50.649Z,8.82
2022-09-28T03:28:18.576Z,7.63
2022-09-28T03:30:47.892Z,7.30
2022-09-28T03:33:16.099Z,6.93
2022-09-28T03:35:47.909Z,7.03
2022-09-28T03:38:16.781Z,6.47
2022-09-28T03:40:44.823Z,8.35
2022-09-28T03:43:12.904Z,4.28
2022-09-28T03:45:40.977Z,6.32
2022-09-28T03:48:10.297Z,4.90
2022-09-28T03:50:38.219Z,5.53
2022-09-28T03:53:06.159Z,6.18
2022-09-28T03:55:34.279Z,7.25
2022-09-28T03:58:02.378Z,8.00
2022-09-28T04:00:30.986Z,6.18
2022-09-28T04:02:58.953Z,6.50
2022-09-28T04:05:28.604Z,6.30
2022-09-28T04:07:57.794Z,6.28
2022-09-28T04:10:26.376Z,8.32
2022-09-28T04:12:56.017Z,5.18
2022-09-28T04:15:24.594Z,10.38
2022-09-28T04:17:53.016Z,6.68
2022-09-28T04:20:41.523Z,7.57
2022-09-28T04:23:13.445Z,5.80
2022-09-28T04:25:41.450Z,8.38
2022-09-28T04:28:28.236Z,6.55
2022-09-28T04:30:56.165Z,11.23
2022-09-28T04:33:24.311Z,7.15
2022-09-28T04:35:53.647Z,6.10
2022-09-28T04:38:35.858Z,7.00
2022-09-28T04:41:10.498Z,5.82
2022-09-28T04:43:38.914Z,6.68
2022-09-28T04:46:07.452Z,7.40
2022-09-28T04:48:43.914Z,8.27
2022-09-28T04:51:34.073Z,8.13
2022-09-28T04:54:02.015Z,8.55
2022-09-28T04:56:29.941Z,5.63
2022-09-28T04:58:58.288Z,8.32
2022-09-28T05:01:26.647Z,7.10
2022-09-28T05:04:14.523Z,5.05
2022-09-28T05:07:09.806Z,7.88
2022-09-28T05:09:38.799Z,9.18
2022-09-28T05:12:07.074Z,8.13
2022-09-28T05:14:34.985Z,6.25
2022-09-28T05:17:05.249Z,4.47
2022-09-28T05:19:56.082Z,9.32
2022-09-28T05:22:25.389Z,5.38
2022-09-28T05:24:54.767Z,6.57
2022-09-28T05:27:22.916Z,6.47
2022-09-28T05:30:00.319Z,8.23
2022-09-28T05:32:30.938Z,7.65
2022-09-28T05:35:07.302Z,7.45
2022-09-28T05:37:44.816Z,7.60
2022-09-28T05:40:13.676Z,4.05
2022-09-28T05:42:42.076Z,8.98
2022-09-28T05:45:11.423Z,7.20
2022-09-28T05:47:43.348Z,6.20
2022-09-28T05:50:16.062Z,6.47
2022-09-28T05:52:45.719Z,6.80
2022-09-28T05:55:14.785Z,6.55
2022-09-28T05:57:42.998Z,7.45
2022-09-28T06:00:12.688Z,4.75
2022-09-28T06:02:41.033Z,7.60
2022-09-28T06:05:12.500Z,4.30
2022-09-28T06:07:40.530Z,10.13
2022-09-28T06:10:10.523Z,5.20
2022-09-28T06:12:42.304Z,6.20
2022-09-28T06:15:16.052Z,5.20
2022-09-28T06:17:45.051Z,7.63
2022-09-28T06:20:34.167Z,7.75
2022-09-28T06:23:22.530Z,7.25
2022-09-28T06:25:51.891Z,5.88
2022-09-28T06:28:20.063Z,5.82
2022-09-28T06:30:48.218Z,5.63
2022-09-28T06:33:19.202Z,7.60
2022-09-28T06:35:47.862Z,4.25
2022-09-28T06:38:16.083Z,8.52
2022-09-28T06:40:44.238Z,7.30
2022-09-28T06:43:15.848Z,7.75
2022-09-28T06:46:02.595Z,8.00
2022-09-28T06:48:39.126Z,5.38
2022-09-28T06:51:09.661Z,5.32
2022-09-28T06:53:45.520Z,5.53
2022-09-28T06:56:32.856Z,5.00
2022-09-28T06:59:02.617Z,6.45
2022-09-28T07:01:30.514Z,3.88
2022-09-28T07:04:18.919Z,5.15
2022-09-28T07:07:22.017Z,4.10
2022-09-28T07:10:02.480Z,5.90
2022-09-28T07:12:42.455Z,4.07
2022-09-28T07:15:26.126Z,4.57
2022-09-28T07:18:02.479Z,4.70
2022-09-28T07:20:35.142Z,3.83
2022-09-28T07:23:18.469Z,3.75
2022-09-28T07:26:09.219Z,3.03
2022-09-28T07:28:56.232Z,2.35
2022-09-28T07:31:44.486Z,3.47
2022-09-28T07:34:27.774Z,2.58
2022-09-28T07:37:02.765Z,4.07
2022-09-28T07:39:30.566Z,2.72
2022-09-28T07:42:02.597Z,2.47
2022-09-28T07:44:32.017Z,2.13
2022-09-28T07:47:02.805Z,2.45
2022-09-28T07:50:02.860Z,1.75
2022-09-28T07:52:53.414Z,3.53
2022-09-28T07:58:09.252Z,1.08
2022-09-28T08:00:48.064Z,1.05
2022-09-28T08:03:19.786Z,2.05
2022-09-28T08:05:48.248Z,1.33
2022-09-28T08:08:16.923Z,2.33
2022-09-28T08:10:47.188Z,1.40
2022-09-28T08:13:46.417Z,1.65
2022-09-28T08:16:22.363Z,2.22
2022-09-28T08:19:14.908Z,2.80
2022-09-28T08:21:47.613Z,7.03
2022-09-28T08:24:17.647Z,2.63
2022-09-28T08:26:47.192Z,1.63
2022-09-28T08:29:18.555Z,2.90
2022-09-28T08:31:52.251Z,2.83
2022-09-28T08:34:37.721Z,2.95
2022-09-28T08:37:37.734Z,1.38
2022-09-28T08:40:39.389Z,2.30
2022-09-28T08:43:45.015Z,1.73
2022-09-28T08:46:27.156Z,2.05
2022-09-28T08:49:27.225Z,2.60
2022-09-28T08:52:25.034Z,2.25
2022-09-28T08:55:08.407Z,1.10
2022-09-28T08:57:47.834Z,0.77
2022-09-28T09:00:22.122Z,1.02
2022-09-28T09:02:50.610Z,2.00
2022-09-28T09:05:22.819Z,1.13
2022-09-28T09:08:19.610Z,1.30
2022-09-28T09:10:52.120Z,2.42
2022-09-28T09:14:08.965Z,1.43
2022-09-28T09:16:46.147Z,1.58
2022-09-28T09:19:37.421Z,0.80
2022-09-28T09:22:17.526Z,0.80
2022-09-28T09:24:52.197Z,1.50
2022-09-28T09:27:44.256Z,1.33
2022-09-28T09:30:18.509Z,1.50
2022-09-28T09:33:12.544Z,3.88
2022-09-28T09:36:10.417Z,0.98
2022-09-28T09:39:08.870Z,2.15
2022-09-28T09:42:11.044Z,1.02
2022-09-28T09:45:35.616Z,0.70
2022-09-28T09:48:22.496Z,1.77
2022-09-28T09:50:54.591Z,1.77
2022-09-28T09:53:28.257Z,1.25
2022-09-28T09:56:00.781Z,1.85
2022-09-28T09:58:47.818Z,5.05
2022-09-28T10:01:39.029Z,2.97
2022-09-28T10:04:24.266Z,1.15
2022-09-28T10:06:58.002Z,1.20
2022-09-28T10:09:31.406Z,2.67
2022-09-28T10:12:19.934Z,1.88
2022-09-28T10:14:50.055Z,1.55
2022-09-28T10:17:26.919Z,2.35
2022-09-28T10:20:16.849Z,3.22
2022-09-28T10:23:02.387Z,2.28
2022-09-28T10:25:33.618Z,2.00
2022-09-28T10:28:04.226Z,1.13
2022-09-28T10:30:44.233Z,4.00
2022-09-28T10:33:31.445Z,1.40
2022-09-28T10:36:01.335Z,2.05
2022-09-28T10:38:30.799Z,0.85
2022-09-28T10:41:13.079Z,1.08
2022-09-28T10:44:07.046Z,1.52
2022-09-28T10:46:42.896Z,3.38
2022-09-28T10:49:18.230Z,1.92
2022-09-28T10:51:54.885Z,1.40
2022-09-28T10:54:31.206Z,2.22
2022-09-28T10:57:02.049Z,1.92
2022-09-28T10:59:48.753Z,5.20
2022-09-28T11:02:35.718Z,2.30
2022-09-28T11:05:22.476Z,6.97
2022-09-28T11:07:55.464Z,2.53
2022-09-28T11:13:02.663Z,1.98
2022-09-28T11:15:33.829Z,4.78
2022-09-28T11:18:26.305Z,3.53
2022-09-28T11:21:11.290Z,1.10
2022-09-28T11:26:19.037Z,1.58
2022-09-28T11:28:52.218Z,1.95
2022-09-28T11:31:29.858Z,1.75
2022-09-28T11:34:15.840Z,1.50
2022-09-28T11:37:23.589Z,1.23
2022-09-28T11:40:00.858Z,1.08
2022-09-28T11:42:39.862Z,1.40
2022-09-28T11:45:27.911Z,2.97
2022-09-28T11:47:59.197Z,4.60
2022-09-28T11:50:43.707Z,2.03
2022-09-28T11:53:19.821Z,1.83
2022-09-28T11:55:55.626Z,3.47
2022-09-28T11:58:29.139Z,2.63
2022-09-28T12:01:03.778Z,1.35
2022-09-28T12:03:52.606Z,2.63
2022-09-28T12:06:29.062Z,1.98
2022-09-28T12:09:03.190Z,0.75
2022-09-28T12:11:55.261Z,1.25
2022-09-28T12:14:40.261Z,1.02
2022-09-28T12:17:19.985Z,0.90
2022-09-28T12:19:50.754Z,0.52
2022-09-28T12:22:25.254Z,1.40
2022-09-28T12:24:58.354Z,1.30
2022-09-28T12:27:32.449Z,2.35
2022-09-28T12:30:06.096Z,0.60
2022-09-28T12:32:39.282Z,0.90
2022-09-28T12:35:14.143Z,1.42
2022-09-28T12:38:09.097Z,0.90
2022-09-28T12:40:41.583Z,1.67
2022-09-28T12:43:34.345Z,2.03
2022-09-28T12:46:30.566Z,2.08
2022-09-28T12:52:37.871Z,1.15
2022-09-28T12:55:20.574Z,2.88
2022-09-28T12:58:04.518Z,4.72
2022-09-28T13:00:41.074Z,4.75
2022-09-28T13:03:36.201Z,3.53
2022-09-28T13:06:38.310Z,2.45
2022-09-28T13:09:20.015Z,2.55
2022-09-28T13:12:05.238Z,2.90
2022-09-28T13:15:09.974Z,2.40
2022-09-28T13:17:45.852Z,2.45
2022-09-28T13:20:27.070Z,2.13
2022-09-28T13:23:03.156Z,1.92
2022-09-28T13:25:36.232Z,1.90
2022-09-28T13:28:06.651Z,2.67
2022-09-28T13:30:37.518Z,1.60
2022-09-28T13:33:08.944Z,2.55
2022-09-28T13:35:42.670Z,3.35
2022-09-28T13:38:30.546Z,1.98
2022-09-28T13:41:15.535Z,3.10
2022-09-28T13:44:12.063Z,4.72
2022-09-28T13:46:49.142Z,2.70
2022-09-28T13:49:23.242Z,4.07
2022-09-28T13:52:03.836Z,1.70
2022-09-28T13:54:41.970Z,4.07
2022-09-28T13:57:20.068Z,2.90
2022-09-28T14:00:01.092Z,4.90
2022-09-28T14:02:36.556Z,7.25
2022-09-28T14:05:07.617Z,3.05
2022-09-28T14:07:58.912Z,4.03
2022-09-28T14:10:52.079Z,7.68
2022-09-28T14:14:00.166Z,1.90
2022-09-28T14:16:32.222Z,3.25
2022-09-28T14:19:04.922Z,6.65
2022-09-28T14:22:06.357Z,5.57
2022-09-28T14:24:55.529Z,2.70
2022-09-28T14:28:01.969Z,5.78
2022-09-28T14:30:46.792Z,5.70
2022-09-28T14:33:25.461Z,8.45
2022-09-28T14:35:57.377Z,15.38
2022-09-28T14:38:48.642Z,9.23
2022-09-28T14:41:31.246Z,15.55
2022-09-28T14:44:09.149Z,22.02
2022-09-28T14:46:44.812Z,9.00
2022-09-28T14:49:52.735Z,17.20
2022-09-28T14:52:40.246Z,9.57
2022-09-28T14:55:20.367Z,14.65
2022-09-28T14:57:54.459Z,10.18
2022-09-28T15:00:26.038Z,14.27
2022-09-28T15:02:57.490Z,27.98
2022-09-28T15:05:29.520Z,20.10
2022-09-28T15:07:59.717Z,13.30
2022-09-28T15:10:34.605Z,26.70
2022-09-28T15:13:05.386Z,29.02
2022-09-28T15:15:36.709Z,21.60
2022-09-28T15:18:50.247Z,30.75
2022-09-28T15:21:18.504Z,9.60
2022-09-28T15:23:48.103Z,3.33
2022-09-28T15:26:25.305Z,5.55
2022-09-28T15:28:53.160Z,9.18
2022-09-28T15:31:23.118Z,9.10
2022-09-28T15:34:09.056Z,5.95
2022-09-28T15:36:40.229Z,5.82
2022-09-28T15:39:19.781Z,3.17
2022-09-28T15:41:50.555Z,4.40
2022-09-28T15:44:29.124Z,10.00
2022-09-28T15:47:25.824Z,4.90
2022-09-28T15:49:58.777Z,4.05
2022-09-28T15:52:31.217Z,5.15
2022-09-28T15:55:01.718Z,2.80
2022-09-28T15:57:36.868Z,4.55
2022-09-28T16:00:07.900Z,6.00
2022-09-28T16:02:40.202Z,8.75
2022-09-28T16:05:35.647Z,8.10
2022-09-28T16:08:04.887Z,6.00
2022-09-28T16:10:39.989Z,4.35
2022-09-28T16:13:15.534Z,2.30
2022-09-28T16:15:43.971Z,7.90
2022-09-28T16:18:20.485Z,6.30
2022-09-28T16:20:50.963Z,5.57
2022-09-28T16:23:23.238Z,5.10
2022-09-28T16:25:55.818Z,5.32
2022-09-28T16:28:51.946Z,6.00
2022-09-28T16:31:30.109Z,3.53
2022-09-28T16:34:01.484Z,3.90
2022-09-28T16:36:42.790Z,5.00
2022-09-28T16:39:12.374Z,4.60
2022-09-28T16:41:44.827Z,4.55
2022-09-28T16:44:18.070Z,3.35
2022-09-28T16:46:46.512Z,6.80
2022-09-28T16:49:18.878Z,5.32
2022-09-28T16:51:47.573Z,6.22
2022-09-28T16:54:35.922Z,5.45
2022-09-28T16:57:07.081Z,6.03
2022-09-28T16:59:38.302Z,5.18
2022-09-28T17:02:35.337Z,5.60
2022-09-28T17:05:06.383Z,5.45
2022-09-28T17:07:34.698Z,5.53
2022-09-28T17:10:02.645Z,6.78
2022-09-28T17:12:32.122Z,6.82
2022-09-28T17:15:00.507Z,5.47
2022-09-28T17:17:30.062Z,6.95
2022-09-28T17:19:57.907Z,8.00
2022-09-28T17:22:25.702Z,7.05
2022-09-28T17:24:53.597Z,10.23
2022-09-28T17:27:22.000Z,7.50
2022-09-28T17:29:51.463Z,9.77
2022-09-28T17:32:20.483Z,7.72
2022-09-28T17:34:55.962Z,10.07
2022-09-28T17:40:11.754Z,12.23
2022-09-28T17:42:39.631Z,9.27
2022-09-28T17:45:09.308Z,7.70
2022-09-28T17:47:37.109Z,9.93
2022-09-28T17:50:18.424Z,6.55
2022-09-28T17:52:46.323Z,7.10
2022-09-28T17:55:14.283Z,8.23
2022-09-28T17:57:42.441Z,8.85
2022-09-28T18:00:13.796Z,8.40
2022-09-28T18:02:41.895Z,7.90
2022-09-28T18:05:11.823Z,6.50
2022-09-28T18:07:42.235Z,7.15
2022-09-28T18:10:15.961Z,6.70
2022-09-28T18:12:44.187Z,10.68
2022-09-28T18:15:13.860Z,7.30
2022-09-28T18:17:41.987Z,6.20
2022-09-28T18:20:12.153Z,9.85
2022-09-28T18:22:40.302Z,6.07
2022-09-28T18:25:09.135Z,6.70
2022-09-28T18:27:37.172Z,5.75
2022-09-28T18:30:06.369Z,6.63
2022-09-28T18:32:37.460Z,8.25
2022-09-28T18:35:06.155Z,8.07
2022-09-28T18:37:37.409Z,5.65
2022-09-28T18:40:06.235Z,6.47
2022-09-28T18:42:35.560Z,7.55
2022-09-28T18:45:04.905Z,6.90
2022-09-28T18:47:33.165Z,6.32
2022-09-28T18:50:02.656Z,6.40
2022-09-28T18:52:30.944Z,5.63
2022-09-28T18:54:59.043Z,7.07
2022-09-28T18:57:27.876Z,5.13
2022-09-28T18:59:55.902Z,4.68
2022-09-28T19:02:24.134Z,7.00
2022-09-28T19:04:52.184Z,4.85
2022-09-28T19:07:21.676Z,7.13
2022-09-28T19:09:49.694Z,8.13
2022-09-28T19:12:18.124Z,5.80
2022-09-28T19:14:46.178Z,6.43
2022-09-28T19:17:14.309Z,6.38
2022-09-28T19:19:42.751Z,5.45
2022-09-28T19:22:10.953Z,5.70
2022-09-28T19:24:40.476Z,6.93
2022-09-28T19:27:08.646Z,6.45
2022-09-28T19:29:36.797Z,9.02
2022-09-28T19:32:05.126Z,6.40
2022-09-28T19:34:33.195Z,6.57
2022-09-28T19:37:04.088Z,6.47
2022-09-28T19:39:32.154Z,7.38
2022-09-28T19:42:01.708Z,6.07
2022-09-28T19:44:31.735Z,5.10
2022-09-28T19:47:07.309Z,6.70
2022-09-28T19:49:37.376Z,5.30
2022-09-28T19:52:13.391Z,6.35
2022-09-28T19:54:44.564Z,5.68
2022-09-28T19:57:16.031Z,5.28
2022-09-28T19:59:44.322Z,5.38
2022-09-28T20:02:14.111Z,6.30
2022-09-28T20:04:42.217Z,6.75
2022-09-28T20:07:10.468Z,7.07
2022-09-28T20:09:38.634Z,6.43
2022-09-28T20:12:06.918Z,7.63
2022-09-28T20:14:39.457Z,7.03
2022-09-28T20:17:08.547Z,7.88
2022-09-28T20:19:36.741Z,6.45
2022-09-28T20:22:05.251Z,8.57
2022-09-28T20:24:33.600Z,5.35
2022-09-28T20:27:02.531Z,8.98
2022-09-28T20:29:33.228Z,8.80
2022-09-28T20:32:05.051Z,6.82
2022-09-28T20:34:33.994Z,9.40
2022-09-28T20:37:02.623Z,7.95
2022-09-28T20:39:30.844Z,6.55
2022-09-28T20:41:59.170Z,6.93
2022-09-28T20:44:27.368Z,9.90
2022-09-28T20:46:56.784Z,6.30
2022-09-28T20:49:27.241Z,8.00
2022-09-28T20:51:55.516Z,7.13
2022-09-28T20:54:23.557Z,8.02
2022-09-28T20:56:51.798Z,9.90
2022-09-28T20:59:20.285Z,8.40
2022-09-28T21:01:48.452Z,7.65
2022-09-28T21:04:16.618Z,8.60
2022-09-28T21:06:46.228Z,7.78
2022-09-28T21:09:14.638Z,8.27
2022-09-28T21:11:43.014Z,11.05
2022-09-28T21:14:11.500Z,10.63
2022-09-28T21:16:39.837Z,9.63
2022-09-28T21:19:08.104Z,9.88
2022-09-28T21:21:36.156Z,11.23
2022-09-28T21:24:05.850Z,11.60
2022-09-28T21:26:35.093Z,12.73
2022-09-28T21:29:05.222Z,10.77
2022-09-28T21:31:39.188Z,11.95
2022-09-28T21:34:07.576Z,11.35
2022-09-28T21:36:35.619Z,13.35
2022-09-28T21:39:09.627Z,12.13
2022-09-28T21:41:38.524Z,14.70
2022-09-28T21:44:07.128Z,14.25
2022-09-28T21:46:35.482Z,14.93
2022-09-28T21:49:05.233Z,11.30
2022-09-28T21:51:33.392Z,14.00
2022-09-28T21:54:01.611Z,12.77
2022-09-28T21:56:30.980Z,12.50
2022-09-28T21:58:59.130Z,14.02
2022-09-28T22:01:27.279Z,10.98
2022-09-28T22:03:56.642Z,14.18
2022-09-28T22:06:27.967Z,13.85
2022-09-28T22:08:56.149Z,12.93
2022-09-28T22:11:25.931Z,11.60
2022-09-28T22:13:57.417Z,14.90
2022-09-28T22:16:27.358Z,11.25
2022-09-28T22:18:55.614Z,9.43
2022-09-28T22:21:24.956Z,15.15
2022-09-28T22:23:53.475Z,12.45
2022-09-28T22:26:25.093Z,11.35
2022-09-28T22:28:56.029Z,15.30
2022-09-28T22:31:28.250Z,10.30
2022-09-28T22:33:57.017Z,11.68
2022-09-28T22:36:25.952Z,16.83
2022-09-28T22:38:55.640Z,12.73
2022-09-28T22:41:24.421Z,13.00
2022-09-28T22:43:53.739Z,11.02
2022-09-28T22:46:25.150Z,12.00
2022-09-28T22:48:54.749Z,11.63
2022-09-28T22:51:23.989Z,15.63
2022-09-28T22:53:52.631Z,11.38
2022-09-28T22:56:20.807Z,9.82
2022-09-28T22:58:48.891Z,11.55
2022-09-28T23:01:19.470Z,10.63
2022-09-28T23:03:49.103Z,10.90
2022-09-28T23:06:18.799Z,10.82
2022-09-28T23:08:47.754Z,13.18
2022-09-28T23:11:16.280Z,13.70
2022-09-28T23:13:47.128Z,11.85
2022-09-28T23:16:15.632Z,12.45
2022-09-28T23:18:43.738Z,13.20
2022-09-28T23:21:15.455Z,11.27
2022-09-28T23:23:43.695Z,14.38
2022-09-28T23:26:13.541Z,10.50
2022-09-28T23:28:41.926Z,12.75
2022-09-28T23:31:11.241Z,9.30
2022-09-28T23:33:39.349Z,13.23
2022-09-28T23:36:08.322Z,10.15
2022-09-28T23:38:38.066Z,12.07
2022-09-28T23:41:06.349Z,13.20
2022-09-28T23:43:34.719Z,12.02
2022-09-28T23:46:02.956Z,14.93
2022-09-28T23:48:31.294Z,13.07
2022-09-28T23:50:59.383Z,15.95
2022-09-28T23:53:27.670Z,15.95
2022-09-28T23:55:57.264Z,15.02
2022-09-28T23:58:25.956Z,12.75
